»·PEaware :: N368AA KLGB-KLAX

N368AA :: KLGB-KLAX

FLIGHT INFORMATION

Flight Status: Arrived
Operator: Privately registered:
United States
More flights under this callsign
Pilot: Don H. (15606)
Aircraft: BOEING 767-300
(B763)
More flights by this aircraft type
Origin: KLGB Long Beach
United States
Destination: KLAX Los Angeles Intl
United States
More flights between these airports :: More routes between these airports
Route: +SLI ILS RWY 24R LAX
File this flight plan on PilotEdge
Remarks: EQUIP G
Altitude:
(Current/Filed)
7,000ft
Speed:
(Current/Filed)
210kts
Departed: 10-Jun-17 01:48 PM
Arrived: 10-Jun-17 02:12 PM
Distance/Time
Traveled:
16nm/0:24
Distance/Time
To Go:
Arrived

Flight Plot

Page will automatically refresh every two minutes.

Flight plan parsing failed; only flown route is shown


Map Options




Map Legend


Flown Route
Filed Route
Departure Airport
Arrival Airport
Navaid (VOR, NDB)
Fix

Horizontal Profiles

Position Reports

Time Latitude Longitude Heading Altitude Ground
Speed
10-Jun-17 12:46 33.812749 -118.155764 359 71ft 0kts
10-Jun-17 12:47 33.812749 -118.155764 359 71ft 0kts
10-Jun-17 12:48 33.812749 -118.155764 359 71ft 0kts
10-Jun-17 12:49 33.812749 -118.155764 359 71ft 0kts
10-Jun-17 12:50 33.812749 -118.155764 359 71ft 0kts
10-Jun-17 12:51 33.812749 -118.155764 359 71ft 0kts
10-Jun-17 12:52 33.812749 -118.155764 359 71ft 0kts
10-Jun-17 12:53 33.812749 -118.155764 359 71ft 0kts
10-Jun-17 12:54 33.812749 -118.155764 359 71ft 0kts
10-Jun-17 12:55 33.812749 -118.155764 359 71ft 0kts
10-Jun-17 12:56 33.812749 -118.155764 359 71ft 0kts
10-Jun-17 12:57 33.812749 -118.155764 359 71ft 0kts
10-Jun-17 12:58 33.812749 -118.155764 359 71ft 0kts
10-Jun-17 12:59 33.812749 -118.155764 359 71ft 0kts
10-Jun-17 13:00 33.812749 -118.155764 359 71ft 0kts
10-Jun-17 13:01 33.812749 -118.155764 359 71ft 0kts
10-Jun-17 13:02 33.812749 -118.155764 359 71ft 0kts
10-Jun-17 13:03 33.812749 -118.155764 359 71ft 0kts
10-Jun-17 13:04 33.812749 -118.155764 359 71ft 0kts
10-Jun-17 13:05 33.667964 -117.873734 27 67ft 0kts
10-Jun-17 13:06 33.674977 -117.871566 39 67ft 0kts
10-Jun-17 13:07 33.674977 -117.871566 39 67ft 0kts
10-Jun-17 13:08 33.674977 -117.871566 39 67ft 0kts
10-Jun-17 13:09 33.674977 -117.871566 39 67ft 0kts
10-Jun-17 13:10 33.674977 -117.871566 39 67ft 0kts
10-Jun-17 13:11 33.674977 -117.871566 39 67ft 0kts
10-Jun-17 13:12 33.675073 -117.865178 117 67ft 0kts
10-Jun-17 13:13 33.675073 -117.865178 117 67ft 0kts
10-Jun-17 13:14 33.675073 -117.865178 117 67ft 0kts
10-Jun-17 13:15 33.675073 -117.865178 117 67ft 0kts
10-Jun-17 13:16 33.675073 -117.865178 117 67ft 0kts
10-Jun-17 13:17 33.675073 -117.865178 117 67ft 0kts
10-Jun-17 13:18 33.675073 -117.865178 117 67ft 0kts
10-Jun-17 13:19 33.675073 -117.865178 117 67ft 0kts
10-Jun-17 13:20 33.675073 -117.865178 117 67ft 0kts
10-Jun-17 13:21 33.675073 -117.865178 117 67ft 0kts
10-Jun-17 13:22 33.675073 -117.865178 117 67ft 0kts
10-Jun-17 13:23 33.675073 -117.865178 117 67ft 0kts
10-Jun-17 13:24 33.675073 -117.865178 117 67ft 0kts
10-Jun-17 13:25 33.675073 -117.865178 117 67ft 0kts
10-Jun-17 13:26 33.675073 -117.865178 117 67ft 0kts
10-Jun-17 13:27 33.675073 -117.865178 117 67ft 0kts
10-Jun-17 13:28 33.675073 -117.865178 117 67ft 0kts
10-Jun-17 13:29 33.675073 -117.865178 117 67ft 0kts
10-Jun-17 13:30 33.675073 -117.865178 117 67ft 0kts
10-Jun-17 13:31 33.675073 -117.865178 117 67ft 0kts
10-Jun-17 13:32 33.675073 -117.865178 117 67ft 0kts
10-Jun-17 13:33 33.675073 -117.865178 117 67ft 0kts
10-Jun-17 13:34 33.675173 -117.865393 131 67ft 2kts
10-Jun-17 13:35 33.675637 -117.865553 195 67ft 0kts
10-Jun-17 13:36 33.675637 -117.865553 195 67ft 0kts
10-Jun-17 13:37 33.675613 -117.865561 195 67ft 0kts
10-Jun-17 13:38 33.675243 -117.865488 10 67ft 9kts
10-Jun-17 13:39 33.676633 -117.864740 26 67ft 20kts
10-Jun-17 13:40 33.681610 -117.861564 27 67ft 0kts
10-Jun-17 13:41 33.681879 -117.861395 27 67ft 0kts
10-Jun-17 13:42 33.682543 -117.860928 331 67ft 0kts
10-Jun-17 13:43 33.681623 -117.861759 205 67ft 11kts
10-Jun-17 13:44 33.680690 -117.862974 289 67ft 0kts
10-Jun-17 13:45 33.680690 -117.862974 289 67ft 0kts
10-Jun-17 13:46 33.680690 -117.862974 289 67ft 0kts
10-Jun-17 13:47 33.680690 -117.862974 289 67ft 0kts
10-Jun-17 13:48 33.680690 -117.862974 289 67ft 0kts
10-Jun-17 13:49 33.681294 -117.864585 281 67ft 14kts
10-Jun-17 13:50 33.671077 -117.871915 208 256ft 165kts
10-Jun-17 13:51 33.633293 -117.850231 116 2499ft 207kts
10-Jun-17 13:52 33.601527 -117.797284 145 4134ft 211kts
10-Jun-17 13:53 33.544817 -117.791691 186 4985ft 215kts
10-Jun-17 13:54 33.488905 -117.808697 234 4990ft 215kts
10-Jun-17 13:55 33.509814 -117.866076 321 5030ft 214kts
10-Jun-17 13:56 33.555945 -117.909888 321 6503ft 220kts
10-Jun-17 13:57 33.601892 -117.950059 325 6988ft 221kts
10-Jun-17 13:58 33.644083 -117.984667 325 6999ft 222kts
10-Jun-17 13:59 33.684291 -118.012858 335 7000ft 222kts
10-Jun-17 14:00 33.727174 -118.034327 338 7000ft 222kts
10-Jun-17 14:01 33.776880 -118.057626 338 7000ft 221kts
10-Jun-17 14:02 33.822487 -118.078998 338 6399ft 232kts
10-Jun-17 14:03 33.874241 -118.098551 0 5530ft 239kts
10-Jun-17 14:04 33.927166 -118.096632 1 4821ft 239kts
10-Jun-17 14:05 33.975030 -118.100787 329 4028ft 240kts
10-Jun-17 14:06 33.983708 -118.143210 253 3986ft 189kts
10-Jun-17 14:07 33.976928 -118.178846 259 3795ft 147kts
10-Jun-17 14:08 33.972322 -118.211773 261 3306ft 142kts
10-Jun-17 14:09 33.968381 -118.245458 262 2745ft 141kts
10-Jun-17 14:10 33.964771 -118.279238 263 2184ft 140kts
10-Jun-17 14:11 33.961036 -118.315406 263 1586ft 138kts
10-Jun-17 14:12 33.956967 -118.355070 263 936ft 137kts
10-Jun-17 14:13 33.952814 -118.395244 263 260ft 135kts
10-Jun-17 14:14 33.949915 -118.423074 262 136ft 24kts
10-Jun-17 14:15 33.948648 -118.426577 229 136ft 0kts
10-Jun-17 14:16 33.948648 -118.426577 229 136ft 0kts
10-Jun-17 14:17 33.948648 -118.426577 229 136ft 0kts
10-Jun-17 14:18 33.947576 -118.427634 194 136ft 12kts
10-Jun-17 14:19 33.946518 -118.425316 82 136ft 15kts
10-Jun-17 14:20 33.945031 -118.423219 205 136ft 9kts
10-Jun-17 14:21 33.944732 -118.423847 259 136ft 0kts
10-Jun-17 14:22 33.944732 -118.423847 259 136ft 0kts

Navigation Log

Ident Type
Flight plan parsing failed, navigation log unavailable